createdAt,value
2023-05-01T00:00:57.649Z,0.21
2023-05-01T00:03:25.082Z,0.11
2023-05-01T00:05:59.175Z,0.10
2023-05-01T00:08:25.892Z,0.22
2023-05-01T00:10:53.933Z,0.25
2023-05-01T00:13:23.198Z,-0.25
2023-05-01T00:15:50.525Z,-0.39
2023-05-01T00:18:17.237Z,-0.13
2023-05-01T00:20:43.898Z,-0.31
2023-05-01T00:23:11.990Z,-0.71
2023-05-01T00:25:39.251Z,-0.56
2023-05-01T00:28:06.451Z,-0.66
2023-05-01T00:30:35.129Z,-0.63
2023-05-01T00:33:02.019Z,-0.44
2023-05-01T00:35:30.047Z,-0.71
2023-05-01T00:37:56.752Z,-0.84
2023-05-01T00:40:23.347Z,-0.66
2023-05-01T00:42:51.366Z,-0.68
2023-05-01T00:45:18.230Z,-0.88
2023-05-01T00:47:45.041Z,-0.86
2023-05-01T00:50:13.452Z,-0.71
2023-05-01T00:52:40.821Z,-0.79
2023-05-01T00:55:09.423Z,-0.79
2023-05-01T00:57:36.520Z,-0.70
2023-05-01T01:00:05.357Z,-0.91
2023-05-01T01:02:32.802Z,-0.97
2023-05-01T01:04:59.949Z,-0.87
2023-05-01T01:07:58.203Z,-1.01
2023-05-01T01:10:37.178Z,-1.06
2023-05-01T01:13:20.868Z,-1.08
2023-05-01T01:16:04.396Z,-1.42
2023-05-01T01:18:49.797Z,-1.37
2023-05-01T01:21:33.940Z,-1.45
2023-05-01T01:24:10.608Z,-1.55
2023-05-01T01:27:06.373Z,-1.43
2023-05-01T01:30:04.271Z,-1.52
2023-05-01T01:33:01.347Z,-1.55
2023-05-01T01:35:30.344Z,-1.35
2023-05-01T01:38:36.070Z,-1.29
2023-05-01T01:41:10.055Z,-1.50
2023-05-01T01:43:43.757Z,-1.45
2023-05-01T01:46:13.040Z,-1.63
2023-05-01T01:48:44.769Z,-1.77
2023-05-01T01:51:18.245Z,-1.55
2023-05-01T01:53:51.125Z,-1.65
2023-05-01T01:56:20.379Z,-1.88
2023-05-01T01:58:49.594Z,-1.96
2023-05-01T02:01:18.680Z,-1.68
2023-05-01T02:03:48.310Z,-1.66
2023-05-01T02:06:17.496Z,-1.60
2023-05-01T02:08:47.401Z,-1.43
2023-05-01T02:11:15.836Z,-1.58
2023-05-01T02:13:45.985Z,-1.67
2023-05-01T02:16:13.736Z,-1.54
2023-05-01T02:18:43.006Z,-1.53
2023-05-01T02:21:12.491Z,-1.65
2023-05-01T02:23:40.260Z,-1.69
2023-05-01T02:26:11.611Z,-1.59
2023-05-01T02:28:41.513Z,-1.84
2023-05-01T02:31:09.062Z,-2.08
2023-05-01T02:33:35.684Z,-1.88
2023-05-01T02:36:02.465Z,-1.73
2023-05-01T02:38:29.220Z,-1.79
2023-05-01T02:40:58.010Z,-1.77
2023-05-01T02:43:26.880Z,-1.57
2023-05-01T02:45:56.363Z,-1.56
2023-05-01T02:48:27.622Z,-1.50
2023-05-01T02:50:56.596Z,-1.35
2023-05-01T02:53:24.116Z,-1.41
2023-05-01T02:55:51.029Z,-1.45
2023-05-01T02:58:19.077Z,-1.45
2023-05-01T03:00:48.201Z,-1.18
2023-05-01T03:03:15.895Z,-1.45
2023-05-01T03:05:43.151Z,-1.52
2023-05-01T03:08:10.634Z,-1.47
2023-05-01T03:10:39.960Z,-1.29
2023-05-01T03:13:07.737Z,-1.30
2023-05-01T03:15:34.337Z,-1.27
2023-05-01T03:18:02.718Z,-1.11
2023-05-01T03:20:29.794Z,-1.56
2023-05-01T03:22:58.755Z,-1.76
2023-05-01T03:25:26.685Z,-1.62
2023-05-01T03:27:54.890Z,-1.47
2023-05-01T03:30:22.954Z,-1.44
2023-05-01T03:32:49.665Z,-1.32
2023-05-01T03:35:16.563Z,-1.17
2023-05-01T03:37:43.203Z,-1.42
2023-05-01T03:40:10.474Z,-1.57
2023-05-01T03:42:37.067Z,-1.42
2023-05-01T03:45:03.938Z,-1.20
2023-05-01T03:47:30.696Z,-1.27
2023-05-01T03:49:57.700Z,-1.27
2023-05-01T03:52:25.911Z,-1.09
2023-05-01T03:54:52.534Z,-1.14
2023-05-01T03:57:21.044Z,-1.12
2023-05-01T03:59:48.066Z,-1.03
2023-05-01T04:02:15.431Z,-0.91
2023-05-01T04:04:43.737Z,-1.08
2023-05-01T04:07:11.662Z,-1.22
2023-05-01T04:09:38.318Z,-0.99
2023-05-01T04:12:05.058Z,-0.99
2023-05-01T04:14:31.717Z,-0.99
2023-05-01T04:16:58.654Z,-0.76
2023-05-01T04:19:25.261Z,-0.63
2023-05-01T04:21:53.325Z,-0.69
2023-05-01T04:24:19.975Z,-0.66
2023-05-01T04:26:46.595Z,-0.42
2023-05-01T04:29:13.230Z,-0.52
2023-05-01T04:31:41.781Z,-0.59
2023-05-01T04:34:08.560Z,-0.47
2023-05-01T04:36:35.158Z,-0.35
2023-05-01T04:39:01.859Z,-0.42
2023-05-01T04:41:29.431Z,-0.43
2023-05-01T04:43:56.173Z,-0.18
2023-05-01T04:46:22.949Z,-0.15
2023-05-01T04:48:50.858Z,-0.19
2023-05-01T04:51:17.476Z,-0.01
2023-05-01T04:53:45.368Z,0.14
2023-05-01T04:56:13.463Z,0.06
2023-05-01T04:58:40.138Z,0.01
2023-05-01T05:01:06.783Z,0.23
2023-05-01T05:03:36.273Z,0.19
2023-05-01T05:06:03.617Z,0.15
2023-05-01T05:08:30.858Z,0.33
2023-05-01T05:11:01.392Z,0.49
2023-05-01T05:13:29.044Z,0.48
2023-05-01T05:15:56.936Z,0.60
2023-05-01T05:18:24.871Z,0.83
2023-05-01T05:20:51.558Z,0.79
2023-05-01T05:23:18.172Z,0.88
2023-05-01T05:25:46.176Z,1.18
2023-05-01T05:28:12.787Z,1.26
2023-05-01T05:30:39.406Z,1.32
2023-05-01T05:33:08.849Z,1.55
2023-05-01T05:35:35.749Z,1.64
2023-05-01T05:38:03.161Z,1.63
2023-05-01T05:40:29.889Z,1.80
2023-05-01T05:42:57.114Z,1.95
2023-05-01T05:45:23.845Z,1.85
2023-05-01T05:47:51.972Z,2.03
2023-05-01T05:50:18.624Z,2.18
2023-05-01T05:52:45.377Z,2.13
2023-05-01T05:55:12.062Z,2.29
2023-05-01T05:57:38.686Z,2.47
2023-05-01T06:00:05.910Z,2.40
2023-05-01T06:02:32.665Z,2.46
2023-05-01T06:04:59.470Z,2.75
2023-05-01T06:07:26.163Z,2.68
2023-05-01T06:09:53.529Z,2.77
2023-05-01T06:12:20.324Z,2.97
2023-05-01T06:14:47.541Z,2.85
2023-05-01T06:17:14.394Z,2.96
2023-05-01T06:19:41.537Z,3.20
2023-05-01T06:22:08.275Z,3.09
2023-05-01T06:24:36.659Z,3.13
2023-05-01T06:27:04.705Z,3.41
2023-05-01T06:29:31.411Z,3.35
2023-05-01T06:31:58.186Z,3.42
2023-05-01T06:34:24.852Z,3.64
2023-05-01T06:36:51.584Z,3.51
2023-05-01T06:39:18.185Z,3.50
2023-05-01T06:41:49.262Z,3.72
2023-05-01T06:44:16.463Z,3.59
2023-05-01T06:46:44.260Z,3.76
2023-05-01T06:49:11.162Z,3.85
2023-05-01T06:51:37.865Z,3.68
2023-05-01T06:54:04.637Z,3.92
2023-05-01T06:56:32.394Z,3.93
2023-05-01T06:58:59.049Z,3.77
2023-05-01T07:01:26.011Z,4.05
2023-05-01T07:03:52.765Z,4.13
2023-05-01T07:06:19.468Z,4.00
2023-05-01T07:08:46.126Z,4.24
2023-05-01T07:11:12.762Z,4.22
2023-05-01T07:13:39.760Z,4.16
2023-05-01T07:16:07.181Z,4.45
2023-05-01T07:18:34.891Z,4.27
2023-05-01T07:21:01.594Z,4.14
2023-05-01T07:23:29.554Z,4.42
2023-05-01T07:25:56.843Z,4.38
2023-05-01T07:28:23.582Z,4.35
2023-05-01T07:30:51.538Z,4.63
2023-05-01T07:33:19.941Z,4.42
2023-05-01T07:35:47.934Z,4.50
2023-05-01T07:38:17.100Z,4.68
2023-05-01T07:40:44.178Z,4.45
2023-05-01T07:43:11.813Z,4.69
2023-05-01T07:45:39.712Z,4.77
2023-05-01T07:48:06.519Z,4.84
2023-05-01T07:50:33.407Z,5.06
2023-05-01T07:53:01.251Z,4.98
2023-05-01T07:55:29.476Z,4.99
2023-05-01T07:57:56.182Z,5.26
2023-05-01T08:00:22.937Z,5.07
2023-05-01T08:02:51.519Z,5.05
2023-05-01T08:05:18.666Z,5.25
2023-05-01T08:07:46.757Z,5.02
2023-05-01T08:10:13.759Z,5.24
2023-05-01T08:12:40.592Z,5.28
2023-05-01T08:15:07.802Z,5.10
2023-05-01T08:17:36.321Z,5.24
2023-05-01T08:20:03.843Z,5.32
2023-05-01T08:22:30.483Z,5.08
2023-05-01T08:24:57.163Z,5.30
2023-05-01T08:27:23.972Z,5.39
2023-05-01T08:29:50.698Z,5.33
2023-05-01T08:32:19.394Z,5.57
2023-05-01T08:34:46.550Z,5.40
2023-05-01T08:37:13.217Z,5.39
2023-05-01T08:39:39.821Z,5.55
2023-05-01T08:42:06.700Z,5.31
2023-05-01T08:44:37.995Z,5.60
2023-05-01T08:47:15.170Z,5.60
2023-05-01T08:49:43.047Z,5.61
2023-05-01T08:52:13.682Z,5.88
2023-05-01T08:54:44.038Z,5.72
2023-05-01T08:57:12.289Z,5.88
2023-05-01T08:59:40.323Z,5.94
2023-05-01T09:02:09.345Z,5.79
2023-05-01T09:04:42.533Z,6.02
2023-05-01T09:07:10.115Z,5.83
2023-05-01T09:09:38.371Z,5.96
2023-05-01T09:12:17.180Z,6.08
2023-05-01T09:14:43.934Z,5.96
2023-05-01T09:17:11.536Z,6.13
2023-05-01T09:19:38.193Z,5.86
2023-05-01T09:22:05.918Z,5.96
2023-05-01T09:24:33.304Z,6.01
2023-05-01T09:27:01.040Z,5.65
2023-05-01T09:29:40.285Z,5.80
2023-05-01T09:32:32.080Z,5.69
2023-05-01T09:35:13.518Z,5.65
2023-05-01T09:37:41.125Z,5.85
2023-05-01T09:40:12.457Z,5.77
2023-05-01T09:42:50.607Z,5.93
2023-05-01T09:45:18.988Z,6.02
2023-05-01T09:47:46.890Z,6.04
2023-05-01T09:50:35.195Z,6.28
2023-05-01T09:53:04.902Z,6.08
2023-05-01T09:55:33.361Z,6.13
2023-05-01T09:58:01.580Z,5.91
2023-05-01T10:00:28.380Z,5.79
2023-05-01T10:02:55.638Z,6.10
2023-05-01T10:05:23.838Z,6.13
2023-05-01T10:07:59.440Z,6.13
2023-05-01T10:10:26.504Z,6.23
2023-05-01T10:12:53.189Z,6.02
2023-05-01T10:15:26.572Z,6.16
2023-05-01T10:17:55.767Z,6.25
2023-05-01T10:20:22.475Z,6.07
2023-05-01T10:22:49.703Z,6.25
2023-05-01T10:25:19.060Z,5.97
2023-05-01T10:27:46.441Z,5.96
2023-05-01T10:30:14.432Z,6.02
2023-05-01T10:32:42.116Z,5.68
2023-05-01T10:35:14.608Z,5.79
2023-05-01T10:38:19.831Z,5.56
2023-05-01T10:40:50.406Z,5.49
2023-05-01T10:43:29.874Z,5.64
2023-05-01T10:46:08.841Z,5.27
2023-05-01T10:48:38.866Z,5.13
2023-05-01T10:51:20.572Z,5.31
2023-05-01T10:54:13.904Z,5.12
2023-05-01T10:56:44.230Z,5.27
2023-05-01T10:59:12.872Z,5.25
2023-05-01T11:01:41.203Z,5.07
2023-05-01T11:04:28.345Z,5.27
2023-05-01T11:07:11.953Z,4.91
2023-05-01T11:09:42.720Z,4.83
2023-05-01T11:12:14.632Z,4.68
2023-05-01T11:14:53.818Z,4.47
2023-05-01T11:17:42.472Z,4.67
2023-05-01T11:20:11.654Z,4.51
2023-05-01T11:22:41.154Z,4.48
2023-05-01T11:25:29.419Z,4.58
2023-05-01T11:27:58.770Z,4.24
2023-05-01T11:30:25.962Z,4.35
2023-05-01T11:32:52.928Z,4.30
2023-05-01T11:35:26.362Z,4.05
2023-05-01T11:37:55.802Z,4.22
2023-05-01T11:40:26.439Z,4.19
2023-05-01T11:43:02.290Z,3.96
2023-05-01T11:45:30.213Z,4.14
2023-05-01T11:47:57.553Z,4.06
2023-05-01T11:50:33.279Z,4.05
2023-05-01T11:53:01.549Z,4.25
2023-05-01T11:55:33.604Z,4.09
2023-05-01T11:58:01.161Z,4.09
2023-05-01T12:00:39.028Z,4.26
2023-05-01T12:03:09.255Z,3.99
2023-05-01T12:05:39.232Z,3.96
2023-05-01T12:08:26.306Z,4.04
2023-05-01T12:10:58.683Z,3.74
2023-05-01T12:13:26.239Z,3.88
2023-05-01T12:15:54.872Z,3.79
2023-05-01T12:18:22.143Z,3.59
2023-05-01T12:20:52.241Z,3.68
2023-05-01T12:23:20.980Z,3.77
2023-05-01T12:25:47.716Z,3.63
2023-05-01T12:28:19.618Z,3.75
2023-05-01T12:30:49.140Z,3.76
2023-05-01T12:33:18.215Z,3.56
2023-05-01T12:35:47.946Z,3.75
2023-05-01T12:38:15.812Z,3.58
2023-05-01T12:40:54.559Z,3.51
2023-05-01T12:43:35.153Z,3.65
2023-05-01T12:46:03.307Z,3.43
2023-05-01T12:48:31.658Z,3.40
2023-05-01T12:50:59.661Z,3.68
2023-05-01T12:53:28.993Z,3.54
2023-05-01T12:55:57.474Z,3.55
2023-05-01T12:58:25.131Z,3.81
2023-05-01T13:00:53.737Z,3.60
2023-05-01T13:03:30.979Z,3.63
2023-05-01T13:06:05.992Z,3.77
2023-05-01T13:08:36.450Z,3.60
2023-05-01T13:11:17.429Z,3.63
2023-05-01T13:13:45.232Z,3.67
2023-05-01T13:16:17.966Z,3.42
2023-05-01T13:18:48.433Z,3.46
2023-05-01T13:21:18.831Z,3.65
2023-05-01T13:24:11.478Z,3.30
2023-05-01T13:26:38.348Z,3.35
2023-05-01T13:29:05.879Z,3.44
2023-05-01T13:31:32.736Z,3.19
2023-05-01T13:34:00.987Z,3.30
2023-05-01T13:36:33.160Z,3.19
2023-05-01T13:38:59.858Z,2.97
2023-05-01T13:41:28.644Z,3.19
2023-05-01T13:43:58.593Z,3.10
2023-05-01T13:46:28.905Z,2.99
2023-05-01T13:48:56.434Z,3.21
2023-05-01T13:51:27.204Z,3.08
2023-05-01T13:53:56.328Z,3.00
2023-05-01T13:56:23.086Z,3.20
2023-05-01T13:58:50.597Z,3.04
2023-05-01T14:01:20.703Z,2.94
2023-05-01T14:03:48.715Z,3.09
2023-05-01T14:06:18.315Z,2.80
2023-05-01T14:08:46.978Z,2.65
2023-05-01T14:11:14.514Z,2.85
2023-05-01T14:13:42.330Z,2.82
2023-05-01T14:16:11.032Z,2.69
2023-05-01T14:18:45.347Z,2.89
2023-05-01T14:21:13.696Z,2.82
2023-05-01T14:23:42.195Z,2.72
2023-05-01T14:26:11.257Z,2.86
2023-05-01T14:28:44.217Z,2.73
2023-05-01T14:31:30.238Z,2.69
2023-05-01T14:34:02.967Z,2.93
2023-05-01T14:36:33.306Z,2.72
2023-05-01T14:39:01.709Z,2.60
2023-05-01T14:41:29.662Z,2.78
2023-05-01T14:43:56.947Z,2.63
2023-05-01T14:46:34.333Z,2.52
2023-05-01T14:49:02.091Z,2.72
2023-05-01T14:51:32.125Z,2.44
2023-05-01T14:53:59.633Z,2.28
2023-05-01T14:56:26.472Z,2.51
2023-05-01T14:58:53.144Z,2.50
2023-05-01T15:01:20.401Z,2.37
2023-05-01T15:03:47.381Z,2.46
2023-05-01T15:06:14.834Z,2.56
2023-05-01T15:08:41.762Z,2.49
2023-05-01T15:11:08.892Z,2.49
2023-05-01T15:13:36.422Z,2.66
2023-05-01T15:16:03.289Z,2.50
2023-05-01T15:18:29.934Z,2.51
2023-05-01T15:20:56.722Z,2.64
2023-05-01T15:23:25.082Z,2.50
2023-05-01T15:25:52.131Z,2.51
2023-05-01T15:28:19.082Z,2.78
2023-05-01T15:30:47.354Z,2.78
2023-05-01T15:33:17.771Z,2.65
2023-05-01T15:35:46.741Z,2.76
2023-05-01T15:38:13.749Z,2.68
2023-05-01T15:40:43.570Z,2.58
2023-05-01T15:43:10.231Z,2.66
2023-05-01T15:45:43.367Z,2.77
2023-05-01T15:48:11.345Z,2.73
2023-05-01T15:50:38.043Z,2.81
2023-05-01T15:53:04.828Z,2.94
2023-05-01T15:55:31.585Z,2.82
2023-05-01T15:57:58.279Z,2.80
2023-05-01T16:00:25.409Z,2.99
2023-05-01T16:02:52.430Z,2.86
2023-05-01T16:05:21.462Z,2.79
2023-05-01T16:07:54.040Z,2.97
2023-05-01T16:10:21.653Z,2.85
2023-05-01T16:12:50.625Z,2.72
2023-05-01T16:15:17.336Z,2.88
2023-05-01T16:17:46.776Z,2.84
2023-05-01T16:20:14.642Z,2.76
2023-05-01T16:22:43.000Z,2.93
2023-05-01T16:25:10.546Z,2.85
2023-05-01T16:27:44.887Z,2.74
2023-05-01T16:30:16.213Z,2.94
2023-05-01T16:32:44.707Z,2.90
2023-05-01T16:35:16.856Z,2.85
2023-05-01T16:37:43.499Z,3.03
2023-05-01T16:40:17.069Z,2.89
2023-05-01T16:43:01.050Z,2.83
2023-05-01T16:45:27.896Z,3.03
2023-05-01T16:47:55.214Z,2.85
2023-05-01T16:50:22.748Z,2.79
2023-05-01T16:52:50.075Z,2.97
2023-05-01T16:55:17.744Z,2.86
2023-05-01T16:57:44.646Z,2.74
2023-05-01T17:00:11.804Z,2.91
2023-05-01T17:02:39.355Z,2.84
2023-05-01T17:05:06.823Z,2.78
2023-05-01T17:07:33.513Z,2.83
2023-05-01T17:10:00.249Z,2.91
2023-05-01T17:12:28.142Z,2.68
2023-05-01T17:14:54.989Z,2.81
2023-05-01T17:17:21.969Z,2.76
2023-05-01T17:19:48.955Z,2.64
2023-05-01T17:22:15.738Z,2.79
2023-05-01T17:24:42.428Z,2.76
2023-05-01T17:27:09.330Z,2.67
2023-05-01T17:29:36.522Z,2.76
2023-05-01T17:32:04.551Z,2.83
2023-05-01T17:34:31.379Z,2.70
2023-05-01T17:36:58.215Z,2.79
2023-05-01T17:39:26.128Z,2.81
2023-05-01T17:41:52.739Z,2.64
2023-05-01T17:44:19.375Z,2.64
2023-05-01T17:46:45.993Z,2.80
2023-05-01T17:49:12.592Z,2.63
2023-05-01T17:51:39.218Z,2.54
2023-05-01T17:54:06.122Z,2.71
2023-05-01T17:56:33.124Z,2.63
2023-05-01T17:58:59.874Z,2.47
2023-05-01T18:01:26.617Z,2.57
2023-05-01T18:03:54.313Z,2.56
2023-05-01T18:06:21.745Z,2.39
2023-05-01T18:08:50.085Z,2.50
2023-05-01T18:11:16.909Z,2.54
2023-05-01T18:13:47.591Z,2.30
2023-05-01T18:16:16.202Z,2.35
2023-05-01T18:18:43.060Z,2.41
2023-05-01T18:21:09.757Z,2.16
2023-05-01T18:23:40.189Z,2.10
2023-05-01T18:26:07.365Z,2.32
2023-05-01T18:28:34.619Z,2.13
2023-05-01T18:31:01.953Z,2.03
2023-05-01T18:33:28.651Z,2.20
2023-05-01T18:35:56.280Z,2.11
2023-05-01T18:38:22.934Z,1.95
2023-05-01T18:40:49.944Z,2.00
2023-05-01T18:43:16.674Z,2.14
2023-05-01T18:45:43.269Z,2.06
2023-05-01T18:48:10.045Z,2.03
2023-05-01T18:50:36.707Z,2.21
2023-05-01T18:53:03.479Z,2.13
2023-05-01T18:55:30.087Z,2.05
2023-05-01T18:57:56.723Z,2.20
2023-05-01T19:00:23.617Z,2.17
2023-05-01T19:02:52.150Z,2.03
2023-05-01T19:05:19.463Z,2.02
2023-05-01T19:07:46.603Z,2.21
2023-05-01T19:10:14.055Z,1.96
2023-05-01T19:12:42.373Z,1.86
2023-05-01T19:15:10.136Z,2.05
2023-05-01T19:17:36.884Z,1.97
2023-05-01T19:20:04.571Z,1.84
2023-05-01T19:22:31.352Z,1.92
2023-05-01T19:24:57.986Z,2.00
2023-05-01T19:27:25.523Z,1.88
2023-05-01T19:29:53.813Z,1.86
2023-05-01T19:32:20.660Z,2.01
2023-05-01T19:34:47.522Z,1.85
2023-05-01T19:37:14.154Z,1.75
2023-05-01T19:39:40.743Z,1.90
2023-05-01T19:42:07.600Z,1.89
2023-05-01T19:44:34.234Z,1.78
2023-05-01T19:47:01.289Z,1.78
2023-05-01T19:49:27.908Z,1.97
2023-05-01T19:51:54.594Z,1.79
2023-05-01T19:54:22.710Z,1.74
2023-05-01T19:56:52.576Z,1.92
2023-05-01T19:59:20.037Z,1.78
2023-05-01T20:01:46.826Z,1.70
2023-05-01T20:04:14.556Z,1.81
2023-05-01T20:06:41.283Z,1.83
2023-05-01T20:09:08.222Z,1.72
2023-05-01T20:11:35.066Z,1.71
2023-05-01T20:14:03.600Z,1.88
2023-05-01T20:16:31.313Z,1.77
2023-05-01T20:18:57.965Z,1.71
2023-05-01T20:21:24.918Z,1.90
2023-05-01T20:23:51.601Z,1.79
2023-05-01T20:26:18.996Z,1.74
2023-05-01T20:28:46.004Z,1.81
2023-05-01T20:31:13.516Z,1.91
2023-05-01T20:33:40.643Z,1.82
2023-05-01T20:36:07.458Z,1.87
2023-05-01T20:38:41.406Z,1.96
2023-05-01T20:41:08.348Z,1.84
2023-05-01T20:43:35.057Z,1.80
2023-05-01T20:46:02.058Z,1.99
2023-05-01T20:48:28.703Z,1.88
2023-05-01T20:50:55.331Z,1.84
2023-05-01T20:53:21.998Z,1.98
2023-05-01T20:55:49.925Z,1.97
2023-05-01T20:58:16.832Z,1.90
2023-05-01T21:00:43.499Z,1.99
2023-05-01T21:03:10.477Z,2.04
2023-05-01T21:05:37.300Z,1.96
2023-05-01T21:08:04.019Z,1.94
2023-05-01T21:10:31.582Z,2.10
2023-05-01T21:12:58.925Z,1.97
2023-05-01T21:15:27.042Z,1.97
2023-05-01T21:17:53.886Z,2.10
2023-05-01T21:20:31.899Z,2.03
2023-05-01T21:23:00.032Z,1.99
2023-05-01T21:25:28.047Z,2.11
2023-05-01T21:27:55.080Z,2.11
2023-05-01T21:30:40.501Z,1.97
2023-05-01T21:33:19.401Z,2.08
2023-05-01T21:35:46.774Z,2.08
2023-05-01T21:38:13.774Z,1.99
2023-05-01T21:40:42.716Z,2.02
2023-05-01T21:43:09.912Z,2.15
2023-05-01T21:45:40.380Z,2.03
2023-05-01T21:48:08.759Z,1.97
2023-05-01T21:50:38.157Z,2.16
2023-05-01T21:53:06.901Z,2.02
2023-05-01T21:55:33.775Z,1.93
2023-05-01T21:58:01.170Z,2.05
2023-05-01T22:00:28.454Z,2.05
2023-05-01T22:02:56.475Z,1.99
2023-05-01T22:05:23.860Z,1.97
2023-05-01T22:07:54.184Z,2.13
2023-05-01T22:10:21.423Z,2.01
2023-05-01T22:12:50.890Z,1.90
2023-05-01T22:15:18.191Z,2.04
2023-05-01T22:17:45.314Z,2.05
2023-05-01T22:20:12.680Z,1.94
2023-05-01T22:22:41.492Z,1.96
2023-05-01T22:25:09.475Z,2.15
2023-05-01T22:27:36.523Z,2.00
2023-05-01T22:30:04.505Z,1.94
2023-05-01T22:32:31.425Z,2.11
2023-05-01T22:34:58.482Z,2.03
2023-05-01T22:37:28.086Z,1.96
2023-05-01T22:39:55.020Z,2.12
2023-05-01T22:42:22.487Z,2.06
2023-05-01T22:44:49.831Z,1.95
2023-05-01T22:47:17.024Z,2.01
2023-05-01T22:49:43.623Z,2.10
2023-05-01T22:52:10.217Z,1.97
2023-05-01T22:54:36.844Z,1.94
2023-05-01T22:57:03.477Z,2.14
2023-05-01T22:59:30.447Z,2.06
2023-05-01T23:01:57.626Z,1.94
2023-05-01T23:04:24.565Z,2.06
2023-05-01T23:06:51.299Z,2.10
2023-05-01T23:09:18.051Z,2.00
2023-05-01T23:11:46.456Z,1.94
2023-05-01T23:14:16.685Z,2.09
2023-05-01T23:16:43.288Z,2.08
2023-05-01T23:19:25.239Z,1.99
2023-05-01T23:22:08.571Z,2.13
2023-05-01T23:24:53.405Z,2.04
2023-05-01T23:27:20.138Z,1.89
2023-05-01T23:29:57.585Z,1.97
2023-05-01T23:32:29.483Z,1.99
2023-05-01T23:35:04.306Z,1.92
2023-05-01T23:37:30.948Z,1.94
2023-05-01T23:39:58.836Z,2.07
2023-05-01T23:42:25.927Z,1.97
2023-05-01T23:44:52.606Z,1.90
2023-05-01T23:47:19.449Z,2.02
2023-05-01T23:49:46.785Z,2.07
2023-05-01T23:52:13.470Z,1.99
2023-05-01T23:54:40.179Z,1.99
2023-05-01T23:57:06.828Z,2.14
2023-05-01T23:59:33.944Z,1.96
